sensor_id;sensor_type;location;lat;lon;timestamp;P1;durP1;ratioP1;P2;durP2;ratioP2
17725;SDS011;8983;53.156;17.960;2022-09-30T00:01:30;26.90;;;16.23;;
17725;SDS011;8983;53.156;17.960;2022-09-30T00:03:58;28.77;;;15.83;;
17725;SDS011;8983;53.156;17.960;2022-09-30T00:06:28;25.53;;;16.33;;
17725;SDS011;8983;53.156;17.960;2022-09-30T00:08:57;24.67;;;15.93;;
17725;SDS011;8983;53.156;17.960;2022-09-30T00:11:26;26.67;;;15.50;;
17725;SDS011;8983;53.156;17.960;2022-09-30T00:13:56;28.47;;;16.37;;
17725;SDS011;8983;53.156;17.960;2022-09-30T00:16:25;24.87;;;16.87;;
17725;SDS011;8983;53.156;17.960;2022-09-30T00:18:56;30.23;;;16.73;;
17725;SDS011;8983;53.156;17.960;2022-09-30T00:21:26;27.70;;;17.07;;
17725;SDS011;8983;53.156;17.960;2022-09-30T00:23:55;20.17;;;15.00;;
17725;SDS011;8983;53.156;17.960;2022-09-30T00:26:23;25.73;;;15.87;;
17725;SDS011;8983;53.156;17.960;2022-09-30T00:28:52;29.80;;;16.93;;
17725;SDS011;8983;53.156;17.960;2022-09-30T00:31:23;26.60;;;17.40;;
17725;SDS011;8983;53.156;17.960;2022-09-30T00:33:52;23.93;;;16.40;;
17725;SDS011;8983;53.156;17.960;2022-09-30T00:36:34;27.40;;;16.57;;
17725;SDS011;8983;53.156;17.960;2022-09-30T00:39:05;29.10;;;17.03;;
17725;SDS011;8983;53.156;17.960;2022-09-30T00:41:34;29.93;;;17.37;;
17725;SDS011;8983;53.156;17.960;2022-09-30T00:47:04;27.43;;;15.73;;
17725;SDS011;8983;53.156;17.960;2022-09-30T00:49:43;24.50;;;14.80;;
17725;SDS011;8983;53.156;17.960;2022-09-30T00:52:11;27.77;;;15.37;;
17725;SDS011;8983;53.156;17.960;2022-09-30T00:54:40;25.57;;;15.63;;
17725;SDS011;8983;53.156;17.960;2022-09-30T00:57:10;27.33;;;16.93;;
17725;SDS011;8983;53.156;17.960;2022-09-30T00:59:38;28.43;;;16.47;;
17725;SDS011;8983;53.156;17.960;2022-09-30T01:02:12;34.43;;;19.43;;
17725;SDS011;8983;53.156;17.960;2022-09-30T01:04:40;36.57;;;18.83;;
17725;SDS011;8983;53.156;17.960;2022-09-30T01:07:10;35.17;;;19.30;;
17725;SDS011;8983;53.156;17.960;2022-09-30T01:09:42;30.17;;;17.50;;
17725;SDS011;8983;53.156;17.960;2022-09-30T01:12:11;29.43;;;17.17;;
17725;SDS011;8983;53.156;17.960;2022-09-30T01:14:42;27.57;;;15.60;;
17725;SDS011;8983;53.156;17.960;2022-09-30T01:17:13;24.23;;;14.90;;
17725;SDS011;8983;53.156;17.960;2022-09-30T01:19:57;28.13;;;16.83;;
17725;SDS011;8983;53.156;17.960;2022-09-30T01:22:49;24.33;;;15.43;;
17725;SDS011;8983;53.156;17.960;2022-09-30T01:25:42;24.40;;;14.57;;
17725;SDS011;8983;53.156;17.960;2022-09-30T01:28:35;23.27;;;14.60;;
17725;SDS011;8983;53.156;17.960;2022-09-30T01:31:25;18.83;;;13.93;;
17725;SDS011;8983;53.156;17.960;2022-09-30T01:34:04;22.30;;;14.87;;
17725;SDS011;8983;53.156;17.960;2022-09-30T01:36:43;21.23;;;14.73;;
17725;SDS011;8983;53.156;17.960;2022-09-30T01:39:24;24.70;;;15.50;;
17725;SDS011;8983;53.156;17.960;2022-09-30T01:42:03;24.73;;;15.43;;
17725;SDS011;8983;53.156;17.960;2022-09-30T01:44:42;28.43;;;15.73;;
17725;SDS011;8983;53.156;17.960;2022-09-30T01:47:20;22.43;;;15.43;;
17725;SDS011;8983;53.156;17.960;2022-09-30T01:49:52;23.67;;;15.43;;
17725;SDS011;8983;53.156;17.960;2022-09-30T01:52:29;23.70;;;14.03;;
17725;SDS011;8983;53.156;17.960;2022-09-30T01:55:05;24.73;;;14.83;;
17725;SDS011;8983;53.156;17.960;2022-09-30T01:57:39;24.53;;;15.27;;
17725;SDS011;8983;53.156;17.960;2022-09-30T02:00:13;26.77;;;14.63;;
17725;SDS011;8983;53.156;17.960;2022-09-30T02:02:44;25.27;;;15.40;;
17725;SDS011;8983;53.156;17.960;2022-09-30T02:05:16;24.93;;;14.63;;
17725;SDS011;8983;53.156;17.960;2022-09-30T02:07:48;23.47;;;14.53;;
17725;SDS011;8983;53.156;17.960;2022-09-30T02:10:22;25.33;;;15.43;;
17725;SDS011;8983;53.156;17.960;2022-09-30T02:12:55;21.00;;;14.77;;
17725;SDS011;8983;53.156;17.960;2022-09-30T02:15:31;24.30;;;14.60;;
17725;SDS011;8983;53.156;17.960;2022-09-30T02:18:09;21.17;;;14.07;;
17725;SDS011;8983;53.156;17.960;2022-09-30T02:20:46;22.67;;;14.40;;
17725;SDS011;8983;53.156;17.960;2022-09-30T02:23:16;20.53;;;14.60;;
17725;SDS011;8983;53.156;17.960;2022-09-30T02:25:48;18.90;;;14.10;;
17725;SDS011;8983;53.156;17.960;2022-09-30T02:28:21;21.73;;;14.37;;
17725;SDS011;8983;53.156;17.960;2022-09-30T02:30:53;24.17;;;13.83;;
17725;SDS011;8983;53.156;17.960;2022-09-30T02:33:27;23.60;;;13.90;;
17725;SDS011;8983;53.156;17.960;2022-09-30T02:35:59;19.03;;;14.17;;
17725;SDS011;8983;53.156;17.960;2022-09-30T02:38:33;19.87;;;14.00;;
17725;SDS011;8983;53.156;17.960;2022-09-30T02:41:07;18.87;;;14.00;;
17725;SDS011;8983;53.156;17.960;2022-09-30T02:43:37;18.33;;;13.60;;
17725;SDS011;8983;53.156;17.960;2022-09-30T02:46:07;20.57;;;13.03;;
17725;SDS011;8983;53.156;17.960;2022-09-30T02:48:44;21.37;;;13.57;;
17725;SDS011;8983;53.156;17.960;2022-09-30T02:51:18;19.50;;;13.63;;
17725;SDS011;8983;53.156;17.960;2022-09-30T02:53:51;18.63;;;13.27;;
17725;SDS011;8983;53.156;17.960;2022-09-30T02:56:28;19.20;;;12.60;;
17725;SDS011;8983;53.156;17.960;2022-09-30T02:59:04;22.53;;;13.47;;
17725;SDS011;8983;53.156;17.960;2022-09-30T03:01:32;22.07;;;14.00;;
17725;SDS011;8983;53.156;17.960;2022-09-30T03:04:03;21.77;;;13.80;;
17725;SDS011;8983;53.156;17.960;2022-09-30T03:06:33;22.90;;;14.20;;
17725;SDS011;8983;53.156;17.960;2022-09-30T03:09:02;22.60;;;14.60;;
17725;SDS011;8983;53.156;17.960;2022-09-30T03:11:30;18.50;;;13.50;;
17725;SDS011;8983;53.156;17.960;2022-09-30T03:17:17;22.50;;;14.80;;
17725;SDS011;8983;53.156;17.960;2022-09-30T03:20:10;22.70;;;14.33;;
17725;SDS011;8983;53.156;17.960;2022-09-30T03:22:49;25.53;;;14.77;;
17725;SDS011;8983;53.156;17.960;2022-09-30T03:25:32;24.47;;;14.47;;
17725;SDS011;8983;53.156;17.960;2022-09-30T03:28:13;23.73;;;15.00;;
17725;SDS011;8983;53.156;17.960;2022-09-30T03:30:45;21.67;;;14.73;;
17725;SDS011;8983;53.156;17.960;2022-09-30T03:33:22;23.13;;;14.50;;
17725;SDS011;8983;53.156;17.960;2022-09-30T03:35:59;22.33;;;13.60;;
17725;SDS011;8983;53.156;17.960;2022-09-30T03:38:34;22.30;;;14.70;;
17725;SDS011;8983;53.156;17.960;2022-09-30T03:41:15;23.17;;;14.47;;
17725;SDS011;8983;53.156;17.960;2022-09-30T03:43:49;21.20;;;14.97;;
17725;SDS011;8983;53.156;17.960;2022-09-30T03:46:23;21.10;;;14.20;;
17725;SDS011;8983;53.156;17.960;2022-09-30T03:48:57;23.10;;;15.73;;
17725;SDS011;8983;53.156;17.960;2022-09-30T03:51:29;23.80;;;15.93;;
17725;SDS011;8983;53.156;17.960;2022-09-30T03:53:58;19.80;;;14.90;;
17725;SDS011;8983;53.156;17.960;2022-09-30T03:56:26;21.60;;;14.90;;
17725;SDS011;8983;53.156;17.960;2022-09-30T03:58:57;19.17;;;14.10;;
17725;SDS011;8983;53.156;17.960;2022-09-30T04:01:25;19.23;;;14.40;;
17725;SDS011;8983;53.156;17.960;2022-09-30T04:03:53;23.23;;;14.63;;
17725;SDS011;8983;53.156;17.960;2022-09-30T04:06:22;23.67;;;15.73;;
17725;SDS011;8983;53.156;17.960;2022-09-30T04:08:52;21.60;;;14.73;;
17725;SDS011;8983;53.156;17.960;2022-09-30T04:11:20;20.87;;;14.97;;
17725;SDS011;8983;53.156;17.960;2022-09-30T04:13:48;19.50;;;13.70;;
17725;SDS011;8983;53.156;17.960;2022-09-30T04:16:16;18.50;;;14.13;;
17725;SDS011;8983;53.156;17.960;2022-09-30T04:18:44;23.87;;;14.63;;
17725;SDS011;8983;53.156;17.960;2022-09-30T04:21:13;22.20;;;14.63;;
17725;SDS011;8983;53.156;17.960;2022-09-30T04:23:42;23.30;;;14.40;;
17725;SDS011;8983;53.156;17.960;2022-09-30T04:26:12;22.63;;;15.70;;
17725;SDS011;8983;53.156;17.960;2022-09-30T04:28:42;31.47;;;17.97;;
17725;SDS011;8983;53.156;17.960;2022-09-30T04:31:10;30.40;;;17.83;;
17725;SDS011;8983;53.156;17.960;2022-09-30T04:33:39;25.47;;;16.20;;
17725;SDS011;8983;53.156;17.960;2022-09-30T04:36:07;27.17;;;16.33;;
17725;SDS011;8983;53.156;17.960;2022-09-30T04:38:36;23.27;;;15.90;;
17725;SDS011;8983;53.156;17.960;2022-09-30T04:41:05;30.07;;;16.00;;
17725;SDS011;8983;53.156;17.960;2022-09-30T04:43:34;26.73;;;16.13;;
17725;SDS011;8983;53.156;17.960;2022-09-30T04:46:02;25.47;;;16.47;;
17725;SDS011;8983;53.156;17.960;2022-09-30T04:48:31;29.50;;;16.13;;
17725;SDS011;8983;53.156;17.960;2022-09-30T04:50:59;27.67;;;16.60;;
17725;SDS011;8983;53.156;17.960;2022-09-30T04:53:27;29.47;;;18.47;;
17725;SDS011;8983;53.156;17.960;2022-09-30T04:55:58;28.40;;;18.00;;
17725;SDS011;8983;53.156;17.960;2022-09-30T04:58:27;27.37;;;16.97;;
17725;SDS011;8983;53.156;17.960;2022-09-30T05:01:04;26.57;;;17.43;;
17725;SDS011;8983;53.156;17.960;2022-09-30T05:03:34;27.77;;;18.07;;
17725;SDS011;8983;53.156;17.960;2022-09-30T05:06:03;27.77;;;17.07;;
17725;SDS011;8983;53.156;17.960;2022-09-30T05:08:33;30.60;;;18.63;;
17725;SDS011;8983;53.156;17.960;2022-09-30T05:11:02;24.40;;;17.23;;
17725;SDS011;8983;53.156;17.960;2022-09-30T05:13:31;25.97;;;17.53;;
17725;SDS011;8983;53.156;17.960;2022-09-30T05:16:01;25.90;;;17.20;;
17725;SDS011;8983;53.156;17.960;2022-09-30T05:18:32;30.90;;;18.03;;
17725;SDS011;8983;53.156;17.960;2022-09-30T05:21:00;29.53;;;17.87;;
17725;SDS011;8983;53.156;17.960;2022-09-30T05:23:29;26.87;;;18.27;;
17725;SDS011;8983;53.156;17.960;2022-09-30T05:25:58;26.77;;;17.37;;
17725;SDS011;8983;53.156;17.960;2022-09-30T05:28:26;37.07;;;20.10;;
17725;SDS011;8983;53.156;17.960;2022-09-30T05:30:57;35.67;;;20.60;;
17725;SDS011;8983;53.156;17.960;2022-09-30T05:33:28;31.83;;;19.87;;
17725;SDS011;8983;53.156;17.960;2022-09-30T05:35:58;33.37;;;20.40;;
17725;SDS011;8983;53.156;17.960;2022-09-30T05:38:27;28.87;;;19.03;;
17725;SDS011;8983;53.156;17.960;2022-09-30T05:40:55;27.23;;;18.53;;
17725;SDS011;8983;53.156;17.960;2022-09-30T05:43:23;28.73;;;19.47;;
17725;SDS011;8983;53.156;17.960;2022-09-30T05:45:51;32.73;;;20.47;;
17725;SDS011;8983;53.156;17.960;2022-09-30T05:48:20;30.43;;;18.23;;
17725;SDS011;8983;53.156;17.960;2022-09-30T05:50:50;31.17;;;19.67;;
17725;SDS011;8983;53.156;17.960;2022-09-30T05:53:20;29.13;;;18.90;;
17725;SDS011;8983;53.156;17.960;2022-09-30T05:55:49;28.53;;;19.03;;
17725;SDS011;8983;53.156;17.960;2022-09-30T05:58:17;26.87;;;17.60;;
17725;SDS011;8983;53.156;17.960;2022-09-30T06:00:46;28.40;;;18.80;;
17725;SDS011;8983;53.156;17.960;2022-09-30T06:03:15;30.83;;;18.17;;
17725;SDS011;8983;53.156;17.960;2022-09-30T06:05:44;31.17;;;18.10;;
17725;SDS011;8983;53.156;17.960;2022-09-30T06:08:13;31.30;;;19.03;;
17725;SDS011;8983;53.156;17.960;2022-09-30T06:10:42;28.57;;;17.83;;
17725;SDS011;8983;53.156;17.960;2022-09-30T06:13:10;30.47;;;18.33;;
17725;SDS011;8983;53.156;17.960;2022-09-30T06:15:38;29.67;;;18.53;;
17725;SDS011;8983;53.156;17.960;2022-09-30T06:18:06;29.57;;;18.27;;
17725;SDS011;8983;53.156;17.960;2022-09-30T06:20:35;28.33;;;19.40;;
17725;SDS011;8983;53.156;17.960;2022-09-30T06:23:03;30.37;;;19.67;;
17725;SDS011;8983;53.156;17.960;2022-09-30T06:25:32;32.77;;;20.40;;
17725;SDS011;8983;53.156;17.960;2022-09-30T06:28:00;32.97;;;20.30;;
17725;SDS011;8983;53.156;17.960;2022-09-30T06:30:28;36.33;;;20.30;;
17725;SDS011;8983;53.156;17.960;2022-09-30T06:33:00;32.70;;;19.57;;
17725;SDS011;8983;53.156;17.960;2022-09-30T06:35:28;29.60;;;19.80;;
17725;SDS011;8983;53.156;17.960;2022-09-30T06:37:56;32.10;;;20.07;;
17725;SDS011;8983;53.156;17.960;2022-09-30T06:40:24;32.73;;;20.23;;
17725;SDS011;8983;53.156;17.960;2022-09-30T06:42:57;33.47;;;21.80;;
17725;SDS011;8983;53.156;17.960;2022-09-30T06:45:26;34.47;;;21.53;;
17725;SDS011;8983;53.156;17.960;2022-09-30T06:47:58;30.40;;;20.13;;
17725;SDS011;8983;53.156;17.960;2022-09-30T06:50:28;31.13;;;20.37;;
17725;SDS011;8983;53.156;17.960;2022-09-30T06:52:57;33.40;;;20.93;;
17725;SDS011;8983;53.156;17.960;2022-09-30T06:55:25;29.07;;;18.83;;
17725;SDS011;8983;53.156;17.960;2022-09-30T06:57:54;33.20;;;20.47;;
17725;SDS011;8983;53.156;17.960;2022-09-30T07:00:25;34.50;;;21.80;;
17725;SDS011;8983;53.156;17.960;2022-09-30T07:02:53;32.80;;;21.50;;
17725;SDS011;8983;53.156;17.960;2022-09-30T07:05:22;32.77;;;19.80;;
17725;SDS011;8983;53.156;17.960;2022-09-30T07:07:52;37.50;;;20.70;;
17725;SDS011;8983;53.156;17.960;2022-09-30T07:10:20;42.67;;;22.77;;
17725;SDS011;8983;53.156;17.960;2022-09-30T07:12:48;35.77;;;21.27;;
17725;SDS011;8983;53.156;17.960;2022-09-30T07:15:17;41.17;;;22.10;;
17725;SDS011;8983;53.156;17.960;2022-09-30T07:17:50;37.40;;;22.83;;
17725;SDS011;8983;53.156;17.960;2022-09-30T07:20:18;36.63;;;22.70;;
17725;SDS011;8983;53.156;17.960;2022-09-30T07:22:46;34.00;;;21.80;;
17725;SDS011;8983;53.156;17.960;2022-09-30T07:25:14;36.27;;;22.03;;
17725;SDS011;8983;53.156;17.960;2022-09-30T07:27:43;39.40;;;23.80;;
17725;SDS011;8983;53.156;17.960;2022-09-30T07:30:12;37.53;;;22.33;;
17725;SDS011;8983;53.156;17.960;2022-09-30T07:32:53;35.23;;;22.43;;
17725;SDS011;8983;53.156;17.960;2022-09-30T07:35:21;35.83;;;23.50;;
17725;SDS011;8983;53.156;17.960;2022-09-30T07:37:49;39.43;;;24.03;;
17725;SDS011;8983;53.156;17.960;2022-09-30T07:40:17;38.60;;;23.73;;
17725;SDS011;8983;53.156;17.960;2022-09-30T07:42:45;37.50;;;22.80;;
17725;SDS011;8983;53.156;17.960;2022-09-30T07:45:13;43.33;;;25.23;;
17725;SDS011;8983;53.156;17.960;2022-09-30T07:47:42;40.10;;;24.70;;
17725;SDS011;8983;53.156;17.960;2022-09-30T07:50:17;47.77;;;24.60;;
17725;SDS011;8983;53.156;17.960;2022-09-30T07:52:45;38.03;;;24.40;;
17725;SDS011;8983;53.156;17.960;2022-09-30T07:55:13;41.17;;;25.17;;
17725;SDS011;8983;53.156;17.960;2022-09-30T07:57:41;46.53;;;26.97;;
17725;SDS011;8983;53.156;17.960;2022-09-30T08:00:10;39.60;;;25.47;;
17725;SDS011;8983;53.156;17.960;2022-09-30T08:02:58;40.33;;;24.50;;
17725;SDS011;8983;53.156;17.960;2022-09-30T08:05:28;45.70;;;25.93;;
17725;SDS011;8983;53.156;17.960;2022-09-30T08:07:56;44.70;;;27.13;;
17725;SDS011;8983;53.156;17.960;2022-09-30T08:10:24;47.97;;;27.33;;
17725;SDS011;8983;53.156;17.960;2022-09-30T08:12:52;43.20;;;26.50;;
17725;SDS011;8983;53.156;17.960;2022-09-30T08:15:25;52.67;;;27.73;;
17725;SDS011;8983;53.156;17.960;2022-09-30T08:17:53;39.07;;;25.43;;
17725;SDS011;8983;53.156;17.960;2022-09-30T08:20:20;47.40;;;25.90;;
17725;SDS011;8983;53.156;17.960;2022-09-30T08:22:52;38.67;;;25.47;;
17725;SDS011;8983;53.156;17.960;2022-09-30T08:25:20;41.93;;;25.10;;
17725;SDS011;8983;53.156;17.960;2022-09-30T08:27:49;45.77;;;26.50;;
17725;SDS011;8983;53.156;17.960;2022-09-30T08:30:17;40.70;;;25.17;;
17725;SDS011;8983;53.156;17.960;2022-09-30T08:32:45;39.47;;;24.47;;
17725;SDS011;8983;53.156;17.960;2022-09-30T08:35:13;37.73;;;25.00;;
17725;SDS011;8983;53.156;17.960;2022-09-30T08:37:41;35.97;;;24.27;;
17725;SDS011;8983;53.156;17.960;2022-09-30T08:40:15;34.93;;;24.73;;
17725;SDS011;8983;53.156;17.960;2022-09-30T08:42:53;40.90;;;25.03;;
17725;SDS011;8983;53.156;17.960;2022-09-30T08:45:35;36.90;;;25.27;;
17725;SDS011;8983;53.156;17.960;2022-09-30T08:48:19;38.47;;;24.17;;
17725;SDS011;8983;53.156;17.960;2022-09-30T08:50:59;40.07;;;24.10;;
17725;SDS011;8983;53.156;17.960;2022-09-30T08:53:35;38.77;;;24.63;;
17725;SDS011;8983;53.156;17.960;2022-09-30T08:56:09;36.20;;;23.50;;
17725;SDS011;8983;53.156;17.960;2022-09-30T08:58:46;44.70;;;25.97;;
17725;SDS011;8983;53.156;17.960;2022-09-30T09:01:18;41.97;;;25.60;;
17725;SDS011;8983;53.156;17.960;2022-09-30T09:03:50;47.50;;;25.63;;
17725;SDS011;8983;53.156;17.960;2022-09-30T09:06:20;40.10;;;25.80;;
17725;SDS011;8983;53.156;17.960;2022-09-30T09:09:06;46.40;;;26.43;;
17725;SDS011;8983;53.156;17.960;2022-09-30T09:14:44;40.30;;;25.40;;
17725;SDS011;8983;53.156;17.960;2022-09-30T09:17:24;35.60;;;22.93;;
17725;SDS011;8983;53.156;17.960;2022-09-30T09:20:06;39.83;;;24.73;;
17725;SDS011;8983;53.156;17.960;2022-09-30T09:22:40;40.33;;;25.57;;
17725;SDS011;8983;53.156;17.960;2022-09-30T09:25:10;42.17;;;28.50;;
17725;SDS011;8983;53.156;17.960;2022-09-30T09:27:44;43.40;;;30.63;;
17725;SDS011;8983;53.156;17.960;2022-09-30T09:30:18;51.57;;;32.63;;
17725;SDS011;8983;53.156;17.960;2022-09-30T09:32:49;49.23;;;33.63;;
17725;SDS011;8983;53.156;17.960;2022-09-30T09:35:25;45.07;;;31.03;;
17725;SDS011;8983;53.156;17.960;2022-09-30T09:38:00;46.63;;;31.03;;
17725;SDS011;8983;53.156;17.960;2022-09-30T09:40:55;42.43;;;29.90;;
17725;SDS011;8983;53.156;17.960;2022-09-30T09:43:36;46.03;;;29.53;;
17725;SDS011;8983;53.156;17.960;2022-09-30T09:46:15;43.87;;;27.03;;
17725;SDS011;8983;53.156;17.960;2022-09-30T09:49:27;41.97;;;25.33;;
17725;SDS011;8983;53.156;17.960;2022-09-30T09:51:58;34.50;;;22.97;;
17725;SDS011;8983;53.156;17.960;2022-09-30T09:54:43;32.27;;;21.33;;
17725;SDS011;8983;53.156;17.960;2022-09-30T09:57:14;31.33;;;20.53;;
17725;SDS011;8983;53.156;17.960;2022-09-30T09:59:54;31.43;;;20.97;;
17725;SDS011;8983;53.156;17.960;2022-09-30T10:02:29;32.33;;;20.80;;
17725;SDS011;8983;53.156;17.960;2022-09-30T10:04:58;30.47;;;20.73;;
17725;SDS011;8983;53.156;17.960;2022-09-30T10:07:29;32.27;;;20.50;;
17725;SDS011;8983;53.156;17.960;2022-09-30T10:10:05;29.43;;;20.30;;
17725;SDS011;8983;53.156;17.960;2022-09-30T10:12:39;28.67;;;18.90;;
17725;SDS011;8983;53.156;17.960;2022-09-30T10:15:18;26.60;;;17.97;;
17725;SDS011;8983;53.156;17.960;2022-09-30T10:17:51;37.20;;;20.80;;
17725;SDS011;8983;53.156;17.960;2022-09-30T10:20:26;29.10;;;19.83;;
17725;SDS011;8983;53.156;17.960;2022-09-30T10:22:59;28.67;;;18.83;;
17725;SDS011;8983;53.156;17.960;2022-09-30T10:25:29;29.67;;;19.47;;
17725;SDS011;8983;53.156;17.960;2022-09-30T10:27:58;30.13;;;18.17;;
17725;SDS011;8983;53.156;17.960;2022-09-30T10:30:33;27.50;;;17.57;;
17725;SDS011;8983;53.156;17.960;2022-09-30T10:33:10;27.27;;;16.40;;
17725;SDS011;8983;53.156;17.960;2022-09-30T10:35:49;29.63;;;19.40;;
17725;SDS011;8983;53.156;17.960;2022-09-30T10:38:21;32.37;;;18.80;;
17725;SDS011;8983;53.156;17.960;2022-09-30T10:40:51;24.37;;;16.57;;
17725;SDS011;8983;53.156;17.960;2022-09-30T10:43:20;26.93;;;16.97;;
17725;SDS011;8983;53.156;17.960;2022-09-30T10:45:54;24.53;;;15.80;;
17725;SDS011;8983;53.156;17.960;2022-09-30T10:48:44;21.80;;;13.47;;
17725;SDS011;8983;53.156;17.960;2022-09-30T10:51:20;21.93;;;14.47;;
17725;SDS011;8983;53.156;17.960;2022-09-30T10:53:51;21.93;;;13.03;;
17725;SDS011;8983;53.156;17.960;2022-09-30T10:56:39;22.37;;;13.10;;
17725;SDS011;8983;53.156;17.960;2022-09-30T10:59:18;21.27;;;12.47;;
17725;SDS011;8983;53.156;17.960;2022-09-30T11:01:58;21.33;;;12.10;;
17725;SDS011;8983;53.156;17.960;2022-09-30T11:04:33;19.87;;;11.93;;
17725;SDS011;8983;53.156;17.960;2022-09-30T11:07:11;17.23;;;11.97;;
17725;SDS011;8983;53.156;17.960;2022-09-30T11:09:45;17.60;;;11.83;;
17725;SDS011;8983;53.156;17.960;2022-09-30T11:12:19;16.90;;;11.80;;
17725;SDS011;8983;53.156;17.960;2022-09-30T11:14:56;17.07;;;11.23;;
17725;SDS011;8983;53.156;17.960;2022-09-30T11:17:37;17.23;;;10.87;;
17725;SDS011;8983;53.156;17.960;2022-09-30T11:20:14;15.73;;;9.77;;
17725;SDS011;8983;53.156;17.960;2022-09-30T11:22:48;17.83;;;11.10;;
17725;SDS011;8983;53.156;17.960;2022-09-30T11:25:23;17.67;;;12.70;;
17725;SDS011;8983;53.156;17.960;2022-09-30T11:27:57;16.77;;;11.20;;
17725;SDS011;8983;53.156;17.960;2022-09-30T11:30:35;17.77;;;11.60;;
17725;SDS011;8983;53.156;17.960;2022-09-30T11:33:22;15.30;;;9.93;;
17725;SDS011;8983;53.156;17.960;2022-09-30T11:36:03;12.47;;;8.57;;
17725;SDS011;8983;53.156;17.960;2022-09-30T11:41:29;15.50;;;10.30;;
17725;SDS011;8983;53.156;17.960;2022-09-30T11:44:02;17.07;;;10.43;;
17725;SDS011;8983;53.156;17.960;2022-09-30T11:46:44;13.67;;;9.90;;
17725;SDS011;8983;53.156;17.960;2022-09-30T11:49:31;15.03;;;10.33;;
17725;SDS011;8983;53.156;17.960;2022-09-30T11:52:12;10.00;;;7.70;;
17725;SDS011;8983;53.156;17.960;2022-09-30T11:54:57;8.47;;;6.37;;
17725;SDS011;8983;53.156;17.960;2022-09-30T11:57:48;6.67;;;5.23;;
17725;SDS011;8983;53.156;17.960;2022-09-30T12:00:22;7.97;;;5.73;;
17725;SDS011;8983;53.156;17.960;2022-09-30T12:02:51;6.80;;;4.77;;
17725;SDS011;8983;53.156;17.960;2022-09-30T12:05:26;7.90;;;5.70;;
17725;SDS011;8983;53.156;17.960;2022-09-30T12:08:01;9.27;;;6.00;;
17725;SDS011;8983;53.156;17.960;2022-09-30T12:10:31;9.20;;;7.23;;
17725;SDS011;8983;53.156;17.960;2022-09-30T12:13:02;8.07;;;6.60;;
17725;SDS011;8983;53.156;17.960;2022-09-30T12:15:36;9.73;;;7.33;;
17725;SDS011;8983;53.156;17.960;2022-09-30T12:18:08;13.47;;;7.77;;
17725;SDS011;8983;53.156;17.960;2022-09-30T12:20:41;10.00;;;7.87;;
17725;SDS011;8983;53.156;17.960;2022-09-30T12:23:15;12.47;;;7.63;;
17725;SDS011;8983;53.156;17.960;2022-09-30T12:25:48;11.87;;;8.13;;
17725;SDS011;8983;53.156;17.960;2022-09-30T12:28:23;11.17;;;7.93;;
17725;SDS011;8983;53.156;17.960;2022-09-30T12:31:22;11.90;;;8.20;;
17725;SDS011;8983;53.156;17.960;2022-09-30T12:34:19;10.43;;;7.60;;
17725;SDS011;8983;53.156;17.960;2022-09-30T12:37:07;8.37;;;7.43;;
17725;SDS011;8983;53.156;17.960;2022-09-30T12:39:48;15.23;;;12.00;;
17725;SDS011;8983;53.156;17.960;2022-09-30T12:42:28;11.57;;;8.20;;
17725;SDS011;8983;53.156;17.960;2022-09-30T12:48:09;11.40;;;7.83;;
17725;SDS011;8983;53.156;17.960;2022-09-30T12:50:43;9.10;;;8.10;;
17725;SDS011;8983;53.156;17.960;2022-09-30T12:53:17;12.03;;;7.60;;
17725;SDS011;8983;53.156;17.960;2022-09-30T12:55:48;10.87;;;8.00;;
17725;SDS011;8983;53.156;17.960;2022-09-30T12:58:19;11.07;;;7.83;;
17725;SDS011;8983;53.156;17.960;2022-09-30T13:01:00;10.30;;;8.47;;
17725;SDS011;8983;53.156;17.960;2022-09-30T13:03:45;10.10;;;7.20;;
17725;SDS011;8983;53.156;17.960;2022-09-30T13:06:17;11.23;;;8.47;;
17725;SDS011;8983;53.156;17.960;2022-09-30T13:09:03;10.20;;;7.33;;
17725;SDS011;8983;53.156;17.960;2022-09-30T13:11:44;7.90;;;6.70;;
17725;SDS011;8983;53.156;17.960;2022-09-30T13:14:28;8.97;;;7.50;;
17725;SDS011;8983;53.156;17.960;2022-09-30T13:19:54;10.07;;;8.57;;
17725;SDS011;8983;53.156;17.960;2022-09-30T13:25:22;9.33;;;7.33;;
17725;SDS011;8983;53.156;17.960;2022-09-30T13:27:51;13.10;;;8.97;;
17725;SDS011;8983;53.156;17.960;2022-09-30T13:30:39;15.43;;;10.20;;
17725;SDS011;8983;53.156;17.960;2022-09-30T13:36:13;13.80;;;8.67;;
17725;SDS011;8983;53.156;17.960;2022-09-30T13:39:05;10.70;;;8.63;;
17725;SDS011;8983;53.156;17.960;2022-09-30T13:41:45;13.23;;;9.30;;
17725;SDS011;8983;53.156;17.960;2022-09-30T13:44:22;13.67;;;9.97;;
17725;SDS011;8983;53.156;17.960;2022-09-30T13:46:58;12.10;;;9.47;;
17725;SDS011;8983;53.156;17.960;2022-09-30T13:49:35;12.10;;;9.53;;
17725;SDS011;8983;53.156;17.960;2022-09-30T13:52:10;13.80;;;10.53;;
17725;SDS011;8983;53.156;17.960;2022-09-30T13:54:46;13.47;;;10.30;;
17725;SDS011;8983;53.156;17.960;2022-09-30T13:57:19;13.00;;;9.87;;
17725;SDS011;8983;53.156;17.960;2022-09-30T13:59:52;12.57;;;9.70;;
17725;SDS011;8983;53.156;17.960;2022-09-30T14:02:37;14.83;;;8.87;;
17725;SDS011;8983;53.156;17.960;2022-09-30T14:05:27;11.03;;;8.27;;
17725;SDS011;8983;53.156;17.960;2022-09-30T14:08:15;11.90;;;8.20;;
17725;SDS011;8983;53.156;17.960;2022-09-30T14:11:03;11.37;;;8.03;;
17725;SDS011;8983;53.156;17.960;2022-09-30T14:13:47;12.20;;;8.00;;
17725;SDS011;8983;53.156;17.960;2022-09-30T14:22:19;10.37;;;8.13;;
17725;SDS011;8983;53.156;17.960;2022-09-30T14:24:51;13.43;;;8.70;;
17725;SDS011;8983;53.156;17.960;2022-09-30T14:27:32;15.57;;;10.17;;
17725;SDS011;8983;53.156;17.960;2022-09-30T14:30:12;13.63;;;10.13;;
17725;SDS011;8983;53.156;17.960;2022-09-30T14:32:45;16.03;;;11.17;;
17725;SDS011;8983;53.156;17.960;2022-09-30T14:38:21;9.17;;;8.13;;
17725;SDS011;8983;53.156;17.960;2022-09-30T14:40:54;8.80;;;7.03;;
17725;SDS011;8983;53.156;17.960;2022-09-30T14:43:25;10.03;;;7.50;;
17725;SDS011;8983;53.156;17.960;2022-09-30T14:46:09;9.57;;;7.60;;
17725;SDS011;8983;53.156;17.960;2022-09-30T14:48:44;10.07;;;6.70;;
17725;SDS011;8983;53.156;17.960;2022-09-30T14:51:15;10.73;;;7.00;;
17725;SDS011;8983;53.156;17.960;2022-09-30T14:53:52;9.80;;;7.70;;
17725;SDS011;8983;53.156;17.960;2022-09-30T14:56:21;8.43;;;7.20;;
17725;SDS011;8983;53.156;17.960;2022-09-30T14:58:56;8.50;;;7.13;;
17725;SDS011;8983;53.156;17.960;2022-09-30T15:01:28;10.90;;;7.70;;
17725;SDS011;8983;53.156;17.960;2022-09-30T15:04:00;9.77;;;7.80;;
17725;SDS011;8983;53.156;17.960;2022-09-30T15:06:34;9.60;;;8.23;;
17725;SDS011;8983;53.156;17.960;2022-09-30T15:09:06;10.50;;;7.90;;
17725;SDS011;8983;53.156;17.960;2022-09-30T15:11:42;13.60;;;9.53;;
17725;SDS011;8983;53.156;17.960;2022-09-30T15:14:12;12.67;;;9.60;;
17725;SDS011;8983;53.156;17.960;2022-09-30T15:16:46;14.77;;;9.53;;
17725;SDS011;8983;53.156;17.960;2022-09-30T15:19:17;16.20;;;10.57;;
17725;SDS011;8983;53.156;17.960;2022-09-30T15:21:47;18.50;;;9.57;;
17725;SDS011;8983;53.156;17.960;2022-09-30T15:24:16;16.70;;;11.50;;
17725;SDS011;8983;53.156;17.960;2022-09-30T15:26:46;13.90;;;10.50;;
17725;SDS011;8983;53.156;17.960;2022-09-30T15:29:15;15.23;;;11.27;;
17725;SDS011;8983;53.156;17.960;2022-09-30T15:31:44;16.97;;;12.30;;
17725;SDS011;8983;53.156;17.960;2022-09-30T15:34:17;18.50;;;12.00;;
17725;SDS011;8983;53.156;17.960;2022-09-30T15:36:54;17.27;;;11.80;;